Time;durP1;ratioP1;P1;durP2;ratioP2;P2;SDS_P1;SDS_P2;PMS_P1;PMS_P2;Temp;Humidity;BMP_temperature;BMP_pressure;BME280_temperature;BME280_humidity;BME280_pressure;Samples;Min_cycle;Max_cycle;Signal;HPM_P1;HPM_P2
2022/04/08 00:00:03;;;;;;;7.65;2.10;;;;;;;;;;5065846;28;20049;-30
2022/04/08 00:02:29;;;;;;;8.77;2.10;;;;;;;;;;5052235;28;20510;-30
2022/04/08 00:04:57;;;;;;;9.95;1.73;;;;;;;;;;5056022;28;20176;-30
2022/04/08 00:07:23;;;;;;;7.30;1.83;;;;;;;;;;5075132;28;20082;-30
2022/04/08 00:09:49;;;;;;;5.72;1.40;;;;;;;;;;5056824;28;20082;-29
2022/04/08 00:12:15;;;;;;;9.20;1.63;;;;;;;;;;5075026;28;20039;-29
2022/04/08 00:14:41;;;;;;;8.43;1.98;;;;;;;;;;5075194;28;20059;-30
2022/04/08 00:17:07;;;;;;;5.55;1.30;;;;;;;;;;5074455;28;20508;-29
2022/04/08 00:19:33;;;;;;;10.73;1.40;;;;;;;;;;5075407;28;20486;-30
2022/04/08 00:22:00;;;;;;;3.75;1.30;;;;;;;;;;5075044;28;20040;-30
2022/04/08 00:24:26;;;;;;;6.65;1.40;;;;;;;;;;5075554;28;20513;-30
2022/04/08 00:26:52;;;;;;;10.93;2.08;;;;;;;;;;5075461;28;20048;-33
2022/04/08 00:29:18;;;;;;;6.78;1.20;;;;;;;;;;5075714;28;20045;-32
2022/04/08 00:31:44;;;;;;;7.63;2.13;;;;;;;;;;5074221;28;20037;-30
2022/04/08 00:34:10;;;;;;;8.20;1.75;;;;;;;;;;5057862;28;20529;-29
2022/04/08 00:36:36;;;;;;;5.28;1.40;;;;;;;;;;5039971;28;20041;-29
2022/04/08 00:39:03;;;;;;;3.88;1.40;;;;;;;;;;5061068;28;20055;-29
2022/04/08 00:41:29;;;;;;;4.47;1.60;;;;;;;;;;5074426;28;20040;-30
2022/04/08 00:43:55;;;;;;;7.43;1.20;;;;;;;;;;5074943;28;20106;-30
2022/04/08 00:46:21;;;;;;;5.53;1.30;;;;;;;;;;5073681;28;20409;-29
2022/04/08 00:48:47;;;;;;;6.57;1.88;;;;;;;;;;5074477;28;20505;-29
2022/04/08 00:51:13;;;;;;;4.55;1.15;;;;;;;;;;5060111;28;20123;-31
2022/04/08 00:53:41;;;;;;;3.60;1.00;;;;;;;;;;5054516;28;20051;-29
2022/04/08 00:56:07;;;;;;;6.15;1.23;;;;;;;;;;5058574;28;20146;-42
2022/04/08 00:58:35;;;;;;;4.80;0.93;;;;;;;;;;5074887;28;20484;-29
2022/04/08 01:01:02;;;;;;;2.05;0.75;;;;;;;;;;5067858;28;20076;-30
2022/04/08 01:03:28;;;;;;;3.65;1.00;;;;;;;;;;5073832;28;20410;-28
2022/04/08 01:05:54;;;;;;;5.13;0.93;;;;;;;;;;5071548;28;20036;-29
2022/04/08 01:08:20;;;;;;;2.75;0.73;;;;;;;;;;5052424;28;20478;-29
2022/04/08 01:10:48;;;;;;;2.78;1.02;;;;;;;;;;5054666;28;20056;-29
2022/04/08 01:13:14;;;;;;;2.03;1.00;;;;;;;;;;5073079;28;20036;-30
2022/04/08 01:15:40;;;;;;;2.25;0.95;;;;;;;;;;5072846;28;20410;-29
2022/04/08 01:18:06;;;;;;;3.03;1.30;;;;;;;;;;5061279;28;20047;-30
2022/04/08 01:20:33;;;;;;;5.88;1.20;;;;;;;;;;5063897;28;20117;-30
2022/04/08 01:22:59;;;;;;;3.03;1.10;;;;;;;;;;5067176;28;20043;-28
2022/04/08 01:25:25;;;;;;;2.65;0.90;;;;;;;;;;5073724;28;20048;-29
2022/04/08 01:27:51;;;;;;;4.80;1.00;;;;;;;;;;5057741;28;20045;-29
2022/04/08 01:30:18;;;;;;;2.58;1.00;;;;;;;;;;5053428;28;20097;-29
2022/04/08 01:32:44;;;;;;;6.82;1.17;;;;;;;;;;5066723;28;20391;-28
2022/04/08 01:35:10;;;;;;;2.90;1.27;;;;;;;;;;5073417;28;20478;-29
2022/04/08 01:37:36;;;;;;;5.45;1.00;;;;;;;;;;5067495;28;20119;-29
2022/04/08 01:40:03;;;;;;;2.75;0.98;;;;;;;;;;5073550;28;20514;-29
2022/04/08 01:42:29;;;;;;;5.00;1.10;;;;;;;;;;5067863;28;20040;-29
2022/04/08 01:44:55;;;;;;;5.13;1.55;;;;;;;;;;5073243;28;20417;-28
2022/04/08 01:47:22;;;;;;;3.72;1.10;;;;;;;;;;5057695;28;20046;-30
2022/04/08 01:49:48;;;;;;;4.00;1.10;;;;;;;;;;5073061;28;20052;-29
2022/04/08 01:52:14;;;;;;;4.53;1.38;;;;;;;;;;5080305;28;20470;-30
2022/04/08 01:54:40;;;;;;;5.15;1.30;;;;;;;;;;5053632;28;20033;-28
2022/04/08 01:57:06;;;;;;;7.82;1.60;;;;;;;;;;5052860;28;20037;-28
2022/04/08 01:59:33;;;;;;;7.00;1.23;;;;;;;;;;5052985;28;20037;-29
2022/04/08 02:02:02;;;;;;;5.25;1.30;;;;;;;;;;5055229;28;20048;-29
2022/04/08 02:04:29;;;;;;;4.65;1.40;;;;;;;;;;5088807;28;20051;-29
2022/04/08 02:06:55;;;;;;;5.40;1.40;;;;;;;;;;5069474;28;20064;-28
2022/04/08 02:09:21;;;;;;;6.72;1.35;;;;;;;;;;5070470;28;20043;-29
2022/04/08 02:11:47;;;;;;;4.55;1.15;;;;;;;;;;5072278;28;20039;-30
2022/04/08 02:14:13;;;;;;;4.68;1.40;;;;;;;;;;5072701;28;20505;-30
2022/04/08 02:16:39;;;;;;;5.93;1.20;;;;;;;;;;5059567;28;20041;-29
2022/04/08 02:19:06;;;;;;;6.07;1.23;;;;;;;;;;5069490;28;20044;-29
2022/04/08 02:21:32;;;;;;;5.53;1.40;;;;;;;;;;5072715;28;20075;-29
2022/04/08 02:23:58;;;;;;;5.82;1.63;;;;;;;;;;5070142;28;20055;-34
2022/04/08 02:26:25;;;;;;;3.30;1.00;;;;;;;;;;5065308;28;20482;-31
2022/04/08 02:28:51;;;;;;;6.68;1.38;;;;;;;;;;5036278;28;20040;-29
2022/04/08 02:31:17;;;;;;;4.90;1.30;;;;;;;;;;5052759;28;20437;-30
2022/04/08 02:33:43;;;;;;;4.43;1.23;;;;;;;;;;5062726;28;20060;-28
2022/04/08 02:36:09;;;;;;;7.07;1.48;;;;;;;;;;5072572;28;20072;-31
2022/04/08 02:38:35;;;;;;;7.88;1.63;;;;;;;;;;5071367;28;20043;-29
2022/04/08 02:41:01;;;;;;;5.07;1.92;;;;;;;;;;5072434;28;20466;-28
2022/04/08 02:43:27;;;;;;;4.85;1.48;;;;;;;;;;5071597;28;20036;-30
2022/04/08 02:45:53;;;;;;;10.52;1.92;;;;;;;;;;5072551;28;20463;-28
2022/04/08 02:48:19;;;;;;;7.18;1.67;;;;;;;;;;5062950;28;20041;-29
2022/04/08 02:50:46;;;;;;;5.53;1.73;;;;;;;;;;5052418;28;20171;-29
2022/04/08 02:53:12;;;;;;;5.80;2.00;;;;;;;;;;5052264;28;20044;-29
2022/04/08 02:55:38;;;;;;;10.25;1.77;;;;;;;;;;5052227;28;20072;-29
2022/04/08 02:58:04;;;;;;;6.10;1.63;;;;;;;;;;5069927;28;20498;-29
2022/04/08 03:00:30;;;;;;;7.72;1.70;;;;;;;;;;5072344;28;20469;-28
2022/04/08 03:02:57;;;;;;;7.70;1.80;;;;;;;;;;5069949;28;20548;-31
2022/04/08 03:05:23;;;;;;;4.97;1.60;;;;;;;;;;5072197;28;20123;-30
2022/04/08 03:07:49;;;;;;;7.57;1.60;;;;;;;;;;5068879;28;20037;-28
2022/04/08 03:10:15;;;;;;;4.32;1.42;;;;;;;;;;5051746;28;20123;-29
2022/04/08 03:12:41;;;;;;;7.75;1.67;;;;;;;;;;5051520;28;20041;-28
2022/04/08 03:15:08;;;;;;;6.35;1.83;;;;;;;;;;5055116;28;20037;-29
2022/04/08 03:17:37;;;;;;;3.03;1.10;;;;;;;;;;5071855;28;20037;-30
2022/04/08 03:20:04;;;;;;;4.28;1.08;;;;;;;;;;5064980;28;20041;-29
2022/04/08 03:22:30;;;;;;;4.10;1.20;;;;;;;;;;5071371;28;20044;-29
2022/04/08 03:24:57;;;;;;;6.45;1.40;;;;;;;;;;5073157;28;20051;-31
2022/04/08 03:27:23;;;;;;;4.53;1.63;;;;;;;;;;5053642;28;20410;-34
2022/04/08 03:29:49;;;;;;;6.75;1.67;;;;;;;;;;5051915;28;20037;-28
2022/04/08 03:32:15;;;;;;;6.55;1.48;;;;;;;;;;5051945;28;20041;-30
2022/04/08 03:34:42;;;;;;;5.63;1.85;;;;;;;;;;5051906;28;20502;-29
2022/04/08 03:37:09;;;;;;;7.85;1.75;;;;;;;;;;5052159;28;20041;-29
2022/04/08 03:39:35;;;;;;;5.28;1.40;;;;;;;;;;5054301;28;20525;-31
2022/04/08 03:42:01;;;;;;;11.00;1.80;;;;;;;;;;5056060;28;20132;-28
2022/04/08 03:44:27;;;;;;;4.88;1.70;;;;;;;;;;5056117;28;20123;-29
2022/04/08 03:46:53;;;;;;;7.72;1.75;;;;;;;;;;5055716;28;20045;-30
2022/04/08 03:49:21;;;;;;;7.43;1.98;;;;;;;;;;5054725;28;20115;-30
2022/04/08 03:51:48;;;;;;;7.18;1.73;;;;;;;;;;5054019;28;20037;-30
2022/04/08 03:54:14;;;;;;;9.13;1.80;;;;;;;;;;5053947;28;20127;-30
2022/04/08 03:56:42;;;;;;;6.35;1.50;;;;;;;;;;5054367;28;20045;-29
2022/04/08 03:59:08;;;;;;;3.92;1.80;;;;;;;;;;5054894;28;20124;-30
2022/04/08 04:01:34;;;;;;;3.95;1.40;;;;;;;;;;5055106;28;20122;-29
2022/04/08 04:04:00;;;;;;;8.10;1.40;;;;;;;;;;5037536;28;20195;-29
2022/04/08 04:06:26;;;;;;;9.27;1.85;;;;;;;;;;5055759;28;20120;-28
2022/04/08 04:08:53;;;;;;;8.73;2.35;;;;;;;;;;5037250;28;20049;-28
2022/04/08 04:11:19;;;;;;;10.70;1.80;;;;;;;;;;5055741;28;20397;-31
2022/04/08 04:13:46;;;;;;;8.07;1.95;;;;;;;;;;5055503;28;20398;-28
2022/04/08 04:16:13;;;;;;;7.60;2.38;;;;;;;;;;5055053;28;20053;-29
2022/04/08 04:18:39;;;;;;;10.38;1.95;;;;;;;;;;5054976;28;20482;-29
2022/04/08 04:21:05;;;;;;;7.15;1.70;;;;;;;;;;5055360;28;20041;-31
2022/04/08 04:23:34;;;;;;;9.10;2.00;;;;;;;;;;5054816;28;20037;-29
2022/04/08 04:26:01;;;;;;;8.88;2.15;;;;;;;;;;5054684;28;20040;-32
2022/04/08 04:28:30;;;;;;;7.57;2.15;;;;;;;;;;5053330;28;20124;-29
2022/04/08 04:30:59;;;;;;;7.97;2.17;;;;;;;;;;5037028;28;20055;-28
2022/04/08 04:33:26;;;;;;;6.55;2.67;;;;;;;;;;5054039;28;20048;-29
2022/04/08 04:35:52;;;;;;;9.73;2.20;;;;;;;;;;5054009;28;20055;-30
2022/04/08 04:38:18;;;;;;;7.97;2.03;;;;;;;;;;5055392;28;20041;-29
2022/04/08 04:40:44;;;;;;;6.80;2.22;;;;;;;;;;5054392;28;20041;-29
2022/04/08 04:43:10;;;;;;;8.02;2.20;;;;;;;;;;5035089;28;20075;-30
2022/04/08 04:45:38;;;;;;;10.18;2.25;;;;;;;;;;5053524;28;20090;-29
2022/04/08 04:48:05;;;;;;;10.38;2.35;;;;;;;;;;5053406;28;20470;-31
2022/04/08 04:50:31;;;;;;;7.10;2.17;;;;;;;;;;5053408;28;20279;-29
2022/04/08 04:52:57;;;;;;;7.03;2.33;;;;;;;;;;5054709;28;20448;-30
2022/04/08 04:55:23;;;;;;;11.13;2.90;;;;;;;;;;5054555;28;20056;-31
2022/04/08 04:57:49;;;;;;;7.25;2.15;;;;;;;;;;5054297;28;20094;-30
2022/04/08 05:00:16;;;;;;;12.93;2.53;;;;;;;;;;5053193;28;20512;-31
2022/04/08 05:02:43;;;;;;;12.15;2.53;;;;;;;;;;5054089;28;20041;-29
2022/04/08 05:05:09;;;;;;;9.13;2.25;;;;;;;;;;5054321;28;20037;-29
2022/04/08 05:07:37;;;;;;;9.02;2.20;;;;;;;;;;5054621;28;20036;-29
2022/04/08 05:10:04;;;;;;;13.02;2.20;;;;;;;;;;5054356;28;20084;-30
2022/04/08 05:12:31;;;;;;;6.88;2.55;;;;;;;;;;5054560;28;20041;-31
2022/04/08 05:14:57;;;;;;;7.88;2.40;;;;;;;;;;5054551;28;20048;-29
2022/04/08 05:17:23;;;;;;;12.07;2.50;;;;;;;;;;5054007;28;20044;-31
2022/04/08 05:19:50;;;;;;;12.55;2.85;;;;;;;;;;5053590;28;20498;-31
2022/04/08 05:22:17;;;;;;;7.13;2.60;;;;;;;;;;5063970;28;20147;-30
2022/04/08 05:24:44;;;;;;;10.60;2.88;;;;;;;;;;5053453;28;20064;-33
2022/04/08 05:27:10;;;;;;;8.15;2.45;;;;;;;;;;5071697;28;20562;-31
2022/04/08 05:29:36;;;;;;;14.38;2.92;;;;;;;;;;5052687;28;20047;-29
2022/04/08 05:32:03;;;;;;;11.68;2.63;;;;;;;;;;5060797;28;20044;-29
2022/04/08 05:34:29;;;;;;;8.18;2.60;;;;;;;;;;5068186;28;20390;-28
2022/04/08 05:36:56;;;;;;;9.02;2.65;;;;;;;;;;5050209;28;20418;-29
2022/04/08 05:39:23;;;;;;;7.40;2.47;;;;;;;;;;5074003;28;20037;-30
2022/04/08 05:41:49;;;;;;;10.25;2.70;;;;;;;;;;5070497;28;20513;-30
2022/04/08 05:44:15;;;;;;;10.93;2.45;;;;;;;;;;5070513;28;20328;-32
2022/04/08 05:46:41;;;;;;;11.05;2.40;;;;;;;;;;5070727;28;20086;-30
2022/04/08 05:49:07;;;;;;;5.57;2.20;;;;;;;;;;5071165;28;20037;-31
2022/04/08 05:51:34;;;;;;;5.05;1.77;;;;;;;;;;5067278;28;20060;-32
2022/04/08 05:54:00;;;;;;;2.88;1.83;;;;;;;;;;5069237;28;20048;-32
2022/04/08 05:56:26;;;;;;;3.42;1.70;;;;;;;;;;5058299;28;20053;-33
2022/04/08 05:58:52;;;;;;;3.88;1.70;;;;;;;;;;5071138;28;20087;-33
2022/04/08 06:01:18;;;;;;;4.88;1.70;;;;;;;;;;5066536;28;20104;-32
2022/04/08 06:03:44;;;;;;;4.05;1.80;;;;;;;;;;5071986;28;20044;-30
2022/04/08 06:06:10;;;;;;;2.40;1.55;;;;;;;;;;5058639;28;20521;-33
2022/04/08 06:08:37;;;;;;;3.83;1.58;;;;;;;;;;5067950;28;20440;-32
2022/04/08 06:11:03;;;;;;;1.50;1.40;;;;;;;;;;5071965;28;20536;-32
2022/04/08 06:13:29;;;;;;;2.58;1.77;;;;;;;;;;5060294;28;20040;-32
2022/04/08 06:15:56;;;;;;;3.45;1.75;;;;;;;;;;5055506;28;20032;-33
2022/04/08 06:18:22;;;;;;;3.40;1.73;;;;;;;;;;5072511;28;20047;-41
2022/04/08 06:20:48;;;;;;;3.00;1.35;;;;;;;;;;5071794;28;20056;-33
2022/04/08 06:23:15;;;;;;;4.65;1.40;;;;;;;;;;5068601;28;20044;-31
2022/04/08 06:25:41;;;;;;;1.92;1.30;;;;;;;;;;5072200;28;20428;-34
2022/04/08 06:28:08;;;;;;;1.92;1.30;;;;;;;;;;5071079;28;20052;-30
2022/04/08 06:30:36;;;;;;;2.67;1.50;;;;;;;;;;5069991;28;20037;-31
2022/04/08 06:33:05;;;;;;;2.92;1.83;;;;;;;;;;5064474;28;20040;-32
2022/04/08 06:35:32;;;;;;;3.45;2.25;;;;;;;;;;5066538;28;20056;-33
2022/04/08 06:37:59;;;;;;;4.10;2.30;;;;;;;;;;5065869;28;20083;-30
2022/04/08 06:40:25;;;;;;;2.55;2.00;;;;;;;;;;5063794;28;20075;-32
2022/04/08 06:42:55;;;;;;;3.75;2.05;;;;;;;;;;5064709;28;20028;-31
2022/04/08 06:45:23;;;;;;;2.83;1.80;;;;;;;;;;5068359;28;20036;-31
2022/04/08 06:47:49;;;;;;;2.78;2.10;;;;;;;;;;5065615;28;20051;-31
2022/04/08 06:50:16;;;;;;;1.70;1.60;;;;;;;;;;5065920;28;20036;-31
2022/04/08 06:52:43;;;;;;;5.38;2.30;;;;;;;;;;5066491;28;20090;-31
2022/04/08 06:55:10;;;;;;;3.92;1.90;;;;;;;;;;5066460;28;20075;-31
2022/04/08 06:57:36;;;;;;;3.95;1.80;;;;;;;;;;5059814;28;20033;-31
2022/04/08 07:00:04;;;;;;;3.15;1.75;;;;;;;;;;5064700;28;20044;-31
2022/04/08 07:02:30;;;;;;;2.90;1.90;;;;;;;;;;5066842;28;20044;-33
2022/04/08 07:04:56;;;;;;;2.75;1.95;;;;;;;;;;5069349;28;20043;-33
2022/04/08 07:07:22;;;;;;;3.38;1.70;;;;;;;;;;5068230;28;20043;-30
2022/04/08 07:09:48;;;;;;;1.90;1.80;;;;;;;;;;5048786;28;20040;-32
2022/04/08 07:12:14;;;;;;;3.95;1.73;;;;;;;;;;5066862;28;20090;-33
2022/04/08 07:14:40;;;;;;;2.42;1.67;;;;;;;;;;5068647;28;20033;-30
2022/04/08 07:17:06;;;;;;;1.50;1.40;;;;;;;;;;5072061;28;20039;-30
2022/04/08 07:19:32;;;;;;;2.38;1.60;;;;;;;;;;5073545;28;20098;-30
2022/04/08 07:21:58;;;;;;;1.95;1.40;;;;;;;;;;5067622;28;20231;-30
2022/04/08 07:24:25;;;;;;;3.00;1.50;;;;;;;;;;5074085;28;20045;-31
2022/04/08 07:26:51;;;;;;;2.10;1.90;;;;;;;;;;5073136;28;20040;-32
2022/04/08 07:29:17;;;;;;;1.95;1.85;;;;;;;;;;5073623;28;20044;-30
2022/04/08 07:31:43;;;;;;;2.33;1.70;;;;;;;;;;5072255;28;20036;-30
2022/04/08 07:34:09;;;;;;;3.58;1.90;;;;;;;;;;5068055;28;20024;-30
2022/04/08 07:36:35;;;;;;;2.13;1.55;;;;;;;;;;5060340;28;20091;-31
2022/04/08 07:39:01;;;;;;;3.35;1.70;;;;;;;;;;5070394;28;20494;-31
2022/04/08 07:41:27;;;;;;;4.82;1.92;;;;;;;;;;5072991;28;20028;-31
2022/04/08 07:43:55;;;;;;;3.53;1.63;;;;;;;;;;5073183;28;20074;-32
2022/04/08 07:46:21;;;;;;;2.88;1.67;;;;;;;;;;5070992;28;20486;-32
2022/04/08 07:48:47;;;;;;;3.42;1.40;;;;;;;;;;5073034;28;20040;-32
2022/04/08 07:51:13;;;;;;;4.35;1.60;;;;;;;;;;5074035;28;20544;-32
2022/04/08 07:53:39;;;;;;;3.22;1.60;;;;;;;;;;5072543;28;20075;-33
2022/04/08 07:56:06;;;;;;;3.20;2.20;;;;;;;;;;5056159;28;20115;-31
2022/04/08 07:58:32;;;;;;;6.60;2.00;;;;;;;;;;5071083;28;20028;-32
2022/04/08 08:00:58;;;;;;;6.30;2.10;;;;;;;;;;5063278;28;20045;-33
2022/04/08 08:03:24;;;;;;;6.43;2.60;;;;;;;;;;5073478;28;20151;-32
2022/04/08 08:05:52;;;;;;;5.28;2.20;;;;;;;;;;5070765;28;20047;-31
2022/04/08 08:08:20;;;;;;;5.32;2.35;;;;;;;;;;5073702;28;20092;-32
2022/04/08 08:10:46;;;;;;;3.75;1.80;;;;;;;;;;5066386;28;20040;-32
2022/04/08 08:13:12;;;;;;;5.20;2.20;;;;;;;;;;5071103;28;20039;-31
2022/04/08 08:15:41;;;;;;;5.75;2.55;;;;;;;;;;5065246;28;20036;-31
2022/04/08 08:18:08;;;;;;;7.05;2.45;;;;;;;;;;5073109;28;20048;-33
2022/04/08 08:20:34;;;;;;;4.95;2.55;;;;;;;;;;5070203;28;20045;-31
2022/04/08 08:23:00;;;;;;;7.30;3.00;;;;;;;;;;5072465;28;20401;-31
2022/04/08 08:25:27;;;;;;;6.00;2.70;;;;;;;;;;5070198;28;20048;-31
2022/04/08 08:27:54;;;;;;;8.57;3.17;;;;;;;;;;5072546;28;20127;-30
2022/04/08 08:30:21;;;;;;;6.88;2.83;;;;;;;;;;5067972;28;20628;-31
2022/04/08 08:32:47;;;;;;;6.25;2.65;;;;;;;;;;5071844;28;20115;-32
2022/04/08 08:35:17;;;;;;;5.88;3.13;;;;;;;;;;5071592;28;20032;-32
2022/04/08 08:37:43;;;;;;;4.68;2.42;;;;;;;;;;5068355;28;20047;-31
2022/04/08 08:40:11;;;;;;;6.93;2.83;;;;;;;;;;5068641;28;20037;-31
2022/04/08 08:42:37;;;;;;;5.45;3.00;;;;;;;;;;5068935;28;20041;-32
2022/04/08 08:45:04;;;;;;;5.10;3.10;;;;;;;;;;5067304;28;20188;-31
2022/04/08 08:47:31;;;;;;;5.28;3.22;;;;;;;;;;5072380;28;20801;-31
2022/04/08 08:49:57;;;;;;;10.65;3.70;;;;;;;;;;5071280;28;20367;-33
2022/04/08 08:52:24;;;;;;;5.80;2.65;;;;;;;;;;5070248;28;20033;-32
2022/04/08 08:54:51;;;;;;;4.53;2.72;;;;;;;;;;5070799;28;20033;-31
2022/04/08 08:57:21;;;;;;;6.88;2.78;;;;;;;;;;5068533;28;20040;-32
2022/04/08 08:59:47;;;;;;;4.95;2.97;;;;;;;;;;5073646;28;20043;-31
2022/04/08 09:02:20;;;;;;;4.65;2.33;;;;;;;;;;5054287;28;20049;-32
2022/04/08 09:04:47;;;;;;;3.92;2.53;;;;;;;;;;5052636;28;20056;-31
2022/04/08 09:07:22;;;;;;;5.38;2.35;;;;;;;;;;5053201;28;20120;-30
2022/04/08 09:09:52;;;;;;;2.55;2.10;;;;;;;;;;5060488;28;20457;-32
2022/04/08 09:12:19;;;;;;;3.20;1.90;;;;;;;;;;5066441;28;20067;-30
2022/04/08 09:14:49;;;;;;;3.55;1.67;;;;;;;;;;5055814;28;20041;-31
2022/04/08 09:17:19;;;;;;;3.53;1.50;;;;;;;;;;5060846;28;20033;-31
2022/04/08 09:19:49;;;;;;;3.08;1.98;;;;;;;;;;5071790;28;20040;-31
2022/04/08 09:22:15;;;;;;;4.47;1.77;;;;;;;;;;5068131;28;20474;-32
2022/04/08 09:24:41;;;;;;;3.17;1.20;;;;;;;;;;5072852;28;20040;-32
2022/04/08 09:27:07;;;;;;;3.45;1.30;;;;;;;;;;5071199;28;20044;-32
2022/04/08 09:29:34;;;;;;;2.85;1.90;;;;;;;;;;5070341;28;20040;-31
2022/04/08 09:32:00;;;;;;;4.03;1.77;;;;;;;;;;5069328;28;20390;-33
2022/04/08 09:34:29;;;;;;;5.57;1.63;;;;;;;;;;5072309;28;20037;-33
2022/04/08 09:36:57;;;;;;;3.88;1.83;;;;;;;;;;5071232;28;20500;-31
2022/04/08 09:39:23;;;;;;;5.68;1.90;;;;;;;;;;5072501;28;20051;-32
2022/04/08 09:41:52;;;;;;;4.65;2.30;;;;;;;;;;5071268;28;20036;-33
2022/04/08 09:44:23;;;;;;;6.90;2.35;;;;;;;;;;5062747;28;20040;-33
2022/04/08 09:46:49;;;;;;;4.35;2.10;;;;;;;;;;5069495;28;20048;-33
2022/04/08 09:49:15;;;;;;;5.22;2.45;;;;;;;;;;5069647;28;20190;-33
2022/04/08 09:51:42;;;;;;;8.65;2.60;;;;;;;;;;5064949;28;20119;-31
2022/04/08 09:54:12;;;;;;;8.02;3.35;;;;;;;;;;5050659;28;20059;-32
2022/04/08 09:56:39;;;;;;;8.52;3.38;;;;;;;;;;5051137;28;20028;-32
2022/04/08 09:59:10;;;;;;;4.60;2.80;;;;;;;;;;5052460;28;20048;-34
2022/04/08 10:01:36;;;;;;;7.10;3.13;;;;;;;;;;5050220;28;20078;-34
2022/04/08 10:04:07;;;;;;;7.55;3.08;;;;;;;;;;5051608;28;20128;-31
2022/04/08 10:06:33;;;;;;;10.85;3.30;;;;;;;;;;5055848;28;20051;-33
2022/04/08 10:09:00;;;;;;;10.00;3.30;;;;;;;;;;5071152;28;20099;-33
2022/04/08 10:11:50;;;;;;;7.80;2.60;;;;;;;;;;5068124;28;20072;-34
2022/04/08 10:14:16;;;;;;;10.27;3.25;;;;;;;;;;5040936;28;20395;-32
2022/04/08 10:16:42;;;;;;;6.20;2.65;;;;;;;;;;5051785;28;20041;-32
2022/04/08 10:19:08;;;;;;;10.02;3.83;;;;;;;;;;5070811;28;20040;-35
2022/04/08 10:21:39;;;;;;;8.70;2.58;;;;;;;;;;5071472;28;20040;-30
2022/04/08 10:24:15;;;;;;;7.93;2.97;;;;;;;;;;5071512;28;20036;-30
2022/04/08 10:26:57;;;;;;;8.82;2.95;;;;;;;;;;5071605;28;20244;-30
2022/04/08 10:29:23;;;;;;;5.47;1.85;;;;;;;;;;5070157;28;20588;-30
2022/04/08 10:32:02;;;;;;;6.63;1.98;;;;;;;;;;5071411;28;20032;-29
2022/04/08 10:34:29;;;;;;;10.07;2.42;;;;;;;;;;5071157;28;20049;-30
2022/04/08 10:36:55;;;;;;;3.20;1.83;;;;;;;;;;5071692;28;20402;-30
2022/04/08 10:39:22;;;;;;;7.00;2.25;;;;;;;;;;5071363;28;20505;-29
2022/04/08 10:41:58;;;;;;;4.78;1.75;;;;;;;;;;5071258;28;20123;-30
2022/04/08 10:44:34;;;;;;;4.43;1.73;;;;;;;;;;5071790;28;20075;-30
2022/04/08 10:47:10;;;;;;;8.75;2.15;;;;;;;;;;5071873;28;20036;-30
2022/04/08 10:49:53;;;;;;;8.95;2.58;;;;;;;;;;5070739;28;20048;-31
2022/04/08 10:52:26;;;;;;;6.85;2.08;;;;;;;;;;5069826;28;20065;-31
2022/04/08 10:55:03;;;;;;;7.88;1.90;;;;;;;;;;5071203;28;20040;-29
2022/04/08 10:57:39;;;;;;;6.68;1.98;;;;;;;;;;5070570;28;20037;-32
2022/04/08 11:00:06;;;;;;;4.93;1.80;;;;;;;;;;5070538;28;20051;-30
2022/04/08 11:02:36;;;;;;;6.85;2.10;;;;;;;;;;5071730;28;20044;-30
2022/04/08 11:05:06;;;;;;;6.05;2.75;;;;;;;;;;5071741;28;20051;-30
2022/04/08 11:07:33;;;;;;;4.85;2.00;;;;;;;;;;5071566;28;20036;-30
2022/04/08 11:09:59;;;;;;;7.25;2.00;;;;;;;;;;5071202;28;20044;-29
2022/04/08 11:12:25;;;;;;;4.38;2.15;;;;;;;;;;5071583;28;20114;-29
2022/04/08 11:14:57;;;;;;;5.63;2.38;;;;;;;;;;5071572;28;20040;-30
2022/04/08 11:17:24;;;;;;;5.30;2.50;;;;;;;;;;5071135;28;20047;-29
2022/04/08 11:19:50;;;;;;;8.52;2.78;;;;;;;;;;5071463;28;20068;-30
2022/04/08 11:22:16;;;;;;;8.27;2.47;;;;;;;;;;5071375;28;20040;-30
2022/04/08 11:24:43;;;;;;;6.07;2.20;;;;;;;;;;5071823;28;20036;-30
2022/04/08 11:27:10;;;;;;;5.13;2.28;;;;;;;;;;5070655;28;20053;-31
2022/04/08 11:29:37;;;;;;;5.40;2.30;;;;;;;;;;5071926;28;20041;-29
2022/04/08 11:32:08;;;;;;;5.90;2.20;;;;;;;;;;5070907;28;20082;-31
2022/04/08 11:34:34;;;;;;;5.68;2.40;;;;;;;;;;5072304;28;20028;-30
2022/04/08 11:37:01;;;;;;;8.00;2.85;;;;;;;;;;5071705;28;20090;-30
2022/04/08 11:39:27;;;;;;;5.38;2.38;;;;;;;;;;5071585;28;20040;-30
2022/04/08 11:41:54;;;;;;;5.03;2.53;;;;;;;;;;5070242;28;20051;-30
2022/04/08 11:44:21;;;;;;;7.82;2.67;;;;;;;;;;5071292;28;20036;-31
2022/04/08 11:46:47;;;;;;;7.93;2.85;;;;;;;;;;5071633;28;20087;-30
2022/04/08 11:49:14;;;;;;;8.05;2.95;;;;;;;;;;5066539;28;20048;-34
2022/04/08 11:51:40;;;;;;;8.98;2.60;;;;;;;;;;5071425;28;20431;-30
2022/04/08 11:54:06;;;;;;;7.13;2.47;;;;;;;;;;5072020;28;20130;-30
2022/04/08 11:56:33;;;;;;;10.93;2.88;;;;;;;;;;5072008;28;20517;-30
2022/04/08 11:59:03;;;;;;;6.18;2.75;;;;;;;;;;5072173;28;20445;-29
2022/04/08 12:01:30;;;;;;;11.30;2.97;;;;;;;;;;5075073;28;20080;-30
2022/04/08 12:03:59;;;;;;;7.22;2.30;;;;;;;;;;5075153;28;20041;-33
2022/04/08 12:06:36;;;;;;;6.38;2.30;;;;;;;;;;5075361;28;20397;-30
2022/04/08 12:09:03;;;;;;;8.55;2.40;;;;;;;;;;5074707;28;20094;-31
2022/04/08 12:11:31;;;;;;;6.95;3.00;;;;;;;;;;5075082;28;20098;-31
2022/04/08 12:13:57;;;;;;;5.63;2.40;;;;;;;;;;5073392;28;20048;-29
2022/04/08 12:16:23;;;;;;;3.40;2.08;;;;;;;;;;5074718;28;20178;-29
2022/04/08 12:18:53;;;;;;;6.70;1.95;;;;;;;;;;5073807;28;20074;-30
2022/04/08 12:21:23;;;;;;;4.30;1.77;;;;;;;;;;5074444;28;20032;-30
2022/04/08 12:23:50;;;;;;;5.38;1.90;;;;;;;;;;5074495;28;20047;-29
2022/04/08 12:26:16;;;;;;;4.35;2.00;;;;;;;;;;5074645;28;20037;-30
2022/04/08 12:28:42;;;;;;;1.92;1.70;;;;;;;;;;5074202;28;20124;-29
2022/04/08 12:31:12;;;;;;;2.50;1.67;;;;;;;;;;5074317;28;20039;-30
2022/04/08 12:33:38;;;;;;;2.58;1.88;;;;;;;;;;5074371;28;20039;-29
2022/04/08 12:36:07;;;;;;;4.32;2.00;;;;;;;;;;5074152;28;20074;-32
2022/04/08 12:38:33;;;;;;;3.55;1.70;;;;;;;;;;5073150;28;20032;-30
2022/04/08 12:40:59;;;;;;;3.15;1.70;;;;;;;;;;5073201;28;20095;-31
2022/04/08 12:43:25;;;;;;;3.20;1.85;;;;;;;;;;5073545;28;20037;-31
2022/04/08 12:45:51;;;;;;;5.88;2.38;;;;;;;;;;5072990;28;20040;-32
2022/04/08 12:48:17;;;;;;;6.30;2.10;;;;;;;;;;5066139;28;20414;-32
2022/04/08 12:50:43;;;;;;;6.43;2.88;;;;;;;;;;5066547;28;20045;-32
2022/04/08 12:53:09;;;;;;;5.45;2.22;;;;;;;;;;5064592;28;20041;-31
2022/04/08 12:55:35;;;;;;;3.80;2.20;;;;;;;;;;5069994;28;20033;-31
2022/04/08 12:58:01;;;;;;;5.93;2.92;;;;;;;;;;5070182;28;20041;-31
2022/04/08 13:00:28;;;;;;;5.45;2.67;;;;;;;;;;5073440;28;20032;-33
2022/04/08 13:02:54;;;;;;;5.22;2.20;;;;;;;;;;5067345;28;20041;-32
2022/04/08 13:05:20;;;;;;;6.10;2.35;;;;;;;;;;5073076;28;20406;-34
2022/04/08 13:07:46;;;;;;;5.03;2.03;;;;;;;;;;5074493;28;20397;-34
2022/04/08 13:10:13;;;;;;;5.35;1.75;;;;;;;;;;5061393;28;20124;-31
2022/04/08 13:12:39;;;;;;;3.33;1.60;;;;;;;;;;5068067;28;20071;-33
2022/04/08 13:15:07;;;;;;;10.80;1.42;;;;;;;;;;5069192;28;20071;-33
2022/04/08 13:17:34;;;;;;;2.63;1.20;;;;;;;;;;5068919;28;20092;-32
2022/04/08 13:20:00;;;;;;;2.20;1.27;;;;;;;;;;5072601;28;20083;-32
2022/04/08 13:22:26;;;;;;;3.22;1.23;;;;;;;;;;5071644;28;20369;-34
2022/04/08 13:24:55;;;;;;;2.40;1.20;;;;;;;;;;5070503;28;20052;-33
2022/04/08 13:27:22;;;;;;;3.38;1.50;;;;;;;;;;5071081;28;20072;-34
2022/04/08 13:29:49;;;;;;;2.97;1.45;;;;;;;;;;5070217;28;20047;-32
2022/04/08 13:32:16;;;;;;;7.05;1.65;;;;;;;;;;5072070;28;20490;-32
2022/04/08 13:34:42;;;;;;;5.38;1.80;;;;;;;;;;5055863;28;20056;-32
2022/04/08 13:37:08;;;;;;;1.63;1.30;;;;;;;;;;5068574;28;20094;-33
2022/04/08 13:39:38;;;;;;;3.42;1.33;;;;;;;;;;5072372;28;20486;-31
2022/04/08 13:42:04;;;;;;;3.30;1.40;;;;;;;;;;5064989;28;20040;-31
2022/04/08 13:44:31;;;;;;;4.57;1.80;;;;;;;;;;5060936;28;20047;-33
2022/04/08 13:46:58;;;;;;;3.13;1.38;;;;;;;;;;5068872;28;20163;-33
2022/04/08 13:49:24;;;;;;;2.58;1.48;;;;;;;;;;5060496;28;20041;-33
2022/04/08 13:51:51;;;;;;;3.35;1.30;;;;;;;;;;5070226;28;20036;-32
2022/04/08 13:54:17;;;;;;;2.70;1.20;;;;;;;;;;5068140;28;20040;-32
2022/04/08 13:56:43;;;;;;;4.88;1.50;;;;;;;;;;5073159;28;20037;-36
2022/04/08 13:59:09;;;;;;;2.08;1.00;;;;;;;;;;5068181;28;20406;-34
2022/04/08 14:01:35;;;;;;;4.70;1.10;;;;;;;;;;5053051;28;20538;-33
2022/04/08 14:04:01;;;;;;;2.55;0.88;;;;;;;;;;5053625;28;20041;-37
2022/04/08 14:06:28;;;;;;;3.22;1.10;;;;;;;;;;5068267;28;20036;-33
2022/04/08 14:08:54;;;;;;;4.90;1.13;;;;;;;;;;5073488;28;20037;-33
2022/04/08 14:11:20;;;;;;;3.33;1.08;;;;;;;;;;5066095;28;20568;-35
2022/04/08 14:13:46;;;;;;;4.28;1.00;;;;;;;;;;5061466;28;20032;-33
2022/04/08 14:16:13;;;;;;;3.00;1.10;;;;;;;;;;5060753;28;20052;-34
2022/04/08 14:18:39;;;;;;;5.43;1.23;;;;;;;;;;5061548;28;20107;-33
2022/04/08 14:21:05;;;;;;;1.50;0.95;;;;;;;;;;5062837;28;20032;-37
2022/04/08 14:23:32;;;;;;;2.40;1.10;;;;;;;;;;5053898;28;20037;-32
2022/04/08 14:25:59;;;;;;;3.70;1.30;;;;;;;;;;5059731;28;20208;-34
2022/04/08 14:28:26;;;;;;;3.22;1.05;;;;;;;;;;5062622;28;20047;-34
2022/04/08 14:30:52;;;;;;;3.30;1.13;;;;;;;;;;5064311;28;20045;-35
2022/04/08 14:33:19;;;;;;;5.85;1.13;;;;;;;;;;5059225;28;20029;-32
2022/04/08 14:35:45;;;;;;;4.72;1.42;;;;;;;;;;5061318;28;20044;-33
2022/04/08 14:38:11;;;;;;;5.03;1.52;;;;;;;;;;5072165;28;20040;-33
2022/04/08 14:40:38;;;;;;;3.55;2.00;;;;;;;;;;5063140;28;20471;-35